Thomas G. Thompson — KTDQ — position and weather

sailwx.info

Track history (hours):
 
Tides and Currents Weather Stations Pressure Air Temp Water Temp Dewpoint Dewpoint Depression Visibility Wind Speed Wind Dir Waves Ship Positions

Oceanographic research ship Thomas G. Thompson (USA)

Ship's website: http://www.ocean.washington.edu/vessels/TGT/tgt.html

Detailed information on ship capabilities available from University of Delaware's Ocean Information Center.

Owner: UNIVERSITY OF WASHINGTON, SEATTLE, WA. More information available from US FCC via Universal Licensing System and Coast Guard Vessel Documentation Center.

Last reported at 2020-Oct-01 11:30 UTC. Time now 2020-Oct-01 11:50 UTC.
Position N 47°43' W 122°29'.

Type: Other ship. MMSI: 366345000.

Date/timePositionNaut miles runAvg speedWind from/ knotsBaromVisibWave heightAir tempDewpointWater temp
2020-Oct-01 11:30N 47°43' W 122°29'0 0.0
2020-Oct-01 10:00N 47°43' W 122°29'0 0.0
2020-Oct-01 08:00N 47°43' W 122°29'0 0.0
2020-Oct-01 05:30N 47°43' W 122°29'17 2.4
2020-Sep-30 22:30N 47°59' W 122°37'2 2.3
2020-Sep-30 21:30N 48°01' W 122°38'35 5.4
2020-Sep-30 15:00N 48°12' W 123°28'4 2.0
2020-Sep-30 13:00N 48°12' W 123°34'0 0.1
2020-Sep-30 10:00N 48°11' W 123°33'0 0.1
2020-Sep-30 06:01N 48°12' W 123°33'1 1.5
2020-Sep-30 05:30N 48°12' W 123°34'3 6.5
2020-Sep-30 05:00N 48°13' W 123°39'8 3.9
2020-Sep-30 03:00N 48°14' W 123°50'4 7.2
2020-Sep-30 02:30N 48°14' W 123°56'7 2.5
2020-Sep-29 23:31N 48°18' W 124°06'29 4.4
2020-Sep-29 17:01N 48°29' W 124°45'1 1.1
2020-Sep-29 16:00N 48°30' W 124°47'0 0.0
2020-Sep-29 14:30N 48°30' W 124°47'3 6.3
2020-Sep-29 13:59N 48°29' W 124°52'9 8.7
2020-Sep-29 12:59N 48°29' W 125°05'7 4.3
2020-Sep-29 11:23N 48°25' W 125°14'1 0.5
2020-Sep-29 10:00N 48°26' W 125°14'0 0.0
2020-Sep-29 07:00N 48°26' W 125°14'0 0.0
2020-Sep-29 04:59N 48°26' W 125°14'0 0.1
2020-Sep-29 04:29N 48°26' W 125°14'12 3.0
2020-Sep-29 00:22N 48°17' W 125°01'5 1.9
2020-Sep-28 21:55N 48°12' W 125°01'14 2.4
2020-Sep-28 15:49N 47°58' W 124°57'12 3.1
2020-Sep-28 11:59N 47°50' W 125°10'7 0.8
2020-Sep-28 02:51N 47°55' W 125°04'11 7.5
2020-Sep-28 01:27N 47°50' W 125°17'4 8.3
2020-Sep-28 00:59N 47°47' W 125°22'64 1.6
2020-Sep-26 09:30N 46°50' W 124°39'1711.0
2020-Sep-26 08:00N 46°34' W 124°34'611.1
2020-Sep-26 07:30N 46°29' W 124°32'611.1
2020-Sep-26 07:00N 46°23' W 124°31'611.5
2020-Sep-26 06:30N 46°18' W 124°29'1212.2
2020-Sep-26 05:31N 46°06' W 124°26'  
Track history (hours):
 
Tides and Currents Weather Stations Pressure Air Temp Water Temp Dewpoint Dewpoint Depression Visibility Wind Speed Wind Dir Waves Ship Positions

Oceanographic research ship Thomas G. Thompson (USA)

Ship's website: http://www.ocean.washington.edu/vessels/TGT/tgt.html

Detailed information on ship capabilities available from University of Delaware's Ocean Information Center.

Owner: UNIVERSITY OF WASHINGTON, SEATTLE, WA. More information available from US FCC via Universal Licensing System and Coast Guard Vessel Documentation Center.

Last reported at 2020-Oct-01 11:30 UTC. Time now 2020-Oct-01 11:50 UTC.
Position N 47°43' W 122°29'.

Type: Other ship. MMSI: 366345000.

Date/timePositionNaut miles runAvg speedWind from/ knotsBaromVisibWave heightAir tempDewpointWater temp
2020-Oct-01 11:30N 47°43' W 122°29'0 0.0
2020-Oct-01 10:00N 47°43' W 122°29'0 0.0
2020-Oct-01 08:00N 47°43' W 122°29'0 0.0
2020-Oct-01 05:30N 47°43' W 122°29'17 2.4
2020-Sep-30 22:30N 47°59' W 122°37'2 2.3
2020-Sep-30 21:30N 48°01' W 122°38'35 5.4
2020-Sep-30 15:00N 48°12' W 123°28'4 2.0
2020-Sep-30 13:00N 48°12' W 123°34'0 0.1
2020-Sep-30 10:00N 48°11' W 123°33'0 0.1
2020-Sep-30 06:01N 48°12' W 123°33'1 1.5
2020-Sep-30 05:30N 48°12' W 123°34'3 6.5
2020-Sep-30 05:00N 48°13' W 123°39'8 3.9
2020-Sep-30 03:00N 48°14' W 123°50'4 7.2
2020-Sep-30 02:30N 48°14' W 123°56'7 2.5
2020-Sep-29 23:31N 48°18' W 124°06'29 4.4
2020-Sep-29 17:01N 48°29' W 124°45'1 1.1
2020-Sep-29 16:00N 48°30' W 124°47'0 0.0
2020-Sep-29 14:30N 48°30' W 124°47'3 6.3
2020-Sep-29 13:59N 48°29' W 124°52'9 8.7
2020-Sep-29 12:59N 48°29' W 125°05'7 4.3
2020-Sep-29 11:23N 48°25' W 125°14'1 0.5
2020-Sep-29 10:00N 48°26' W 125°14'0 0.0
2020-Sep-29 07:00N 48°26' W 125°14'0 0.0
2020-Sep-29 04:59N 48°26' W 125°14'0 0.1
2020-Sep-29 04:29N 48°26' W 125°14'12 3.0
2020-Sep-29 00:22N 48°17' W 125°01'5 1.9
2020-Sep-28 21:55N 48°12' W 125°01'14 2.4
2020-Sep-28 15:49N 47°58' W 124°57'12 3.1
2020-Sep-28 11:59N 47°50' W 125°10'7 0.8
2020-Sep-28 02:51N 47°55' W 125°04'11 7.5
2020-Sep-28 01:27N 47°50' W 125°17'4 8.3
2020-Sep-28 00:59N 47°47' W 125°22'64 1.6
2020-Sep-26 09:30N 46°50' W 124°39'1711.0
2020-Sep-26 08:00N 46°34' W 124°34'611.1
2020-Sep-26 07:30N 46°29' W 124°32'611.1
2020-Sep-26 07:00N 46°23' W 124°31'611.5
2020-Sep-26 06:30N 46°18' W 124°29'1212.2
2020-Sep-26 05:31N 46°06' W 124°26'  

Dump ship's entire track history